createdAt,value
2018-04-24T00:01:57.159Z,97515.60
2018-04-24T00:04:24.558Z,97515.70
2018-04-24T00:06:52.005Z,97514.16
2018-04-24T00:09:19.432Z,97515.77
2018-04-24T00:11:47.210Z,97518.86
2018-04-24T00:14:14.682Z,97516.59
2018-04-24T00:16:42.066Z,97513.71
2018-04-24T00:19:09.502Z,97512.73
2018-04-24T00:21:36.949Z,97515.77
2018-04-24T00:24:04.382Z,97522.05
2018-04-24T00:26:31.833Z,97521.67
2018-04-24T00:28:59.311Z,97518.44
2018-04-24T00:31:26.805Z,97514.20
2018-04-24T00:33:54.231Z,97513.89
2018-04-24T00:36:21.670Z,97512.15
2018-04-24T00:38:49.145Z,97505.65
2018-04-24T00:41:16.601Z,97516.73
2018-04-24T00:43:44.028Z,97509.61
2018-04-24T00:46:11.504Z,97502.45
2018-04-24T00:48:38.931Z,97509.33
2018-04-24T00:51:06.399Z,97507.83
2018-04-24T00:53:40.740Z,97505.05
2018-04-24T00:56:08.301Z,97501.64
2018-04-24T00:58:35.767Z,97500.74
2018-04-24T01:01:03.232Z,97503.00
2018-04-24T01:03:30.680Z,97494.48
2018-04-24T01:05:58.148Z,97493.41
2018-04-24T01:08:25.588Z,97494.69
2018-04-24T01:10:53.095Z,97494.53
2018-04-24T01:13:20.558Z,97498.51
2018-04-24T01:15:47.987Z,97499.10
2018-04-24T01:18:15.456Z,97504.48
2018-04-24T01:20:42.920Z,97495.23
2018-04-24T01:23:10.388Z,97494.81
2018-04-24T01:25:37.808Z,97494.05
2018-04-24T01:28:05.269Z,97499.50
2018-04-24T01:30:32.749Z,97501.00
2018-04-24T01:33:00.220Z,97503.71
2018-04-24T01:35:27.664Z,97502.20
2018-04-24T01:37:55.142Z,97508.31
2018-04-24T01:40:23.307Z,97507.25
2018-04-24T01:42:50.780Z,97505.42
2018-04-24T01:45:18.240Z,97509.73
2018-04-24T01:47:45.680Z,97507.91
2018-04-24T01:50:13.128Z,97511.62
2018-04-24T01:52:40.872Z,97516.22
2018-04-24T01:55:08.260Z,97519.31
2018-04-24T01:57:36.030Z,97523.80
2018-04-24T02:00:03.487Z,97519.21
2018-04-24T02:02:30.911Z,97516.47
2018-04-24T02:04:58.319Z,97514.77
2018-04-24T02:07:25.760Z,97516.66
2018-04-24T02:09:53.467Z,97510.22
2018-04-24T02:12:21.680Z,97512.44
2018-04-24T02:14:49.150Z,97505.45
2018-04-24T02:17:16.593Z,97503.37
2018-04-24T02:19:44.056Z,97506.69
2018-04-24T02:22:11.468Z,97507.09
2018-04-24T02:24:38.924Z,97506.59
2018-04-24T02:27:06.573Z,97506.48
2018-04-24T02:29:33.967Z,97505.16
2018-04-24T02:32:01.445Z,97496.55
2018-04-24T02:34:28.867Z,97506.35
2018-04-24T02:36:56.309Z,97505.84
2018-04-24T02:39:23.793Z,97510.22
2018-04-24T02:41:51.191Z,97495.92
2018-04-24T02:44:18.586Z,97500.87
2018-04-24T02:46:46.036Z,97502.70
2018-04-24T02:49:13.443Z,97507.43
2018-04-24T02:51:40.950Z,97510.77
2018-04-24T02:54:08.378Z,97513.73
2018-04-24T02:56:35.795Z,97517.34
2018-04-24T02:59:03.250Z,97516.16
2018-04-24T03:01:30.655Z,97516.94
2018-04-24T03:03:58.131Z,97519.75
2018-04-24T03:06:25.548Z,97519.08
2018-04-24T03:08:53.101Z,97519.42
2018-04-24T03:11:20.582Z,97522.31
2018-04-24T03:13:48.010Z,97521.09
2018-04-24T03:16:15.570Z,97521.51
2018-04-24T03:18:42.974Z,97521.17
2018-04-24T03:21:10.385Z,97523.36
2018-04-24T03:23:37.851Z,97518.00
2018-04-24T03:26:05.999Z,97519.73
2018-04-24T03:28:33.424Z,97513.73
2018-04-24T03:31:00.888Z,97514.31
2018-04-24T03:33:28.340Z,97513.85
2018-04-24T03:35:55.756Z,97511.89
2018-04-24T03:38:23.348Z,97506.53
2018-04-24T03:40:50.786Z,97503.25
2018-04-24T03:43:18.683Z,97501.25
2018-04-24T03:45:46.113Z,97505.25
2018-04-24T03:48:13.518Z,97502.55
2018-04-24T03:50:40.981Z,97504.24
2018-04-24T03:53:08.448Z,97497.86
2018-04-24T03:55:35.876Z,97501.83
2018-04-24T03:58:03.291Z,97497.97
2018-04-24T04:00:30.722Z,97505.20
2018-04-24T04:02:58.177Z,97509.57
2018-04-24T04:05:25.586Z,97508.13
2018-04-24T04:07:53.024Z,97512.14
2018-04-24T04:10:20.508Z,97512.14
2018-04-24T04:12:48.004Z,97507.30
2018-04-24T04:15:15.416Z,97509.88
2018-04-24T04:17:54.684Z,97510.06
2018-04-24T04:20:33.919Z,97515.48
2018-04-24T04:23:13.042Z,97520.16
2018-04-24T04:25:40.480Z,97515.87
2018-04-24T04:28:07.977Z,97516.83
2018-04-24T04:30:35.440Z,97521.94
2018-04-24T04:33:03.047Z,97520.53
2018-04-24T04:35:30.368Z,97527.67
2018-04-24T04:37:57.791Z,97519.98
2018-04-24T04:40:25.265Z,97527.05
2018-04-24T04:42:52.930Z,97526.59
2018-04-24T04:45:20.425Z,97523.34
2018-04-24T04:47:47.877Z,97527.58
2018-04-24T04:50:15.291Z,97533.02
2018-04-24T04:52:42.716Z,97534.20
2018-04-24T04:55:10.218Z,97538.05
2018-04-24T04:57:37.649Z,97534.95
2018-04-24T05:00:05.067Z,97546.37
2018-04-24T05:02:32.711Z,97544.28
2018-04-24T05:05:00.150Z,97547.42
2018-04-24T05:07:27.534Z,97546.23
2018-04-24T05:09:54.945Z,97549.09
2018-04-24T05:12:22.393Z,97547.77
2018-04-24T05:14:49.873Z,97547.20
2018-04-24T05:17:17.340Z,97548.29
2018-04-24T05:19:44.797Z,97554.14
2018-04-24T05:22:12.198Z,97553.68
2018-04-24T05:24:39.627Z,97559.29
2018-04-24T05:27:07.060Z,97558.91
2018-04-24T05:29:34.459Z,97554.48
2018-04-24T05:32:01.925Z,97546.67
2018-04-24T05:34:29.366Z,97554.77
2018-04-24T05:36:56.844Z,97562.33
2018-04-24T05:39:24.276Z,97564.09
2018-04-24T05:41:51.715Z,97562.61
2018-04-24T05:44:19.194Z,97559.03
2018-04-24T05:46:46.640Z,97566.03
2018-04-24T05:49:14.070Z,97561.11
2018-04-24T05:51:41.543Z,97564.64
2018-04-24T05:54:09.002Z,97571.63
2018-04-24T05:56:36.478Z,97573.84
2018-04-24T05:59:03.944Z,97570.16
2018-04-24T06:01:31.429Z,97572.50
2018-04-24T06:03:58.889Z,97563.80
2018-04-24T06:06:27.014Z,97571.35
2018-04-24T06:08:54.679Z,97569.66
2018-04-24T06:11:22.174Z,97570.02
2018-04-24T06:13:49.579Z,97562.75
2018-04-24T06:16:17.049Z,97559.98
2018-04-24T06:18:44.493Z,97571.64
2018-04-24T06:21:11.965Z,97573.10
2018-04-24T06:23:39.427Z,97568.33
2018-04-24T06:26:06.893Z,97572.77
2018-04-24T06:28:34.480Z,97572.36
2018-04-24T06:31:01.857Z,97569.98
2018-04-24T06:33:29.263Z,97569.97
2018-04-24T06:35:56.805Z,97567.83
2018-04-24T06:38:24.205Z,97571.77
2018-04-24T06:40:51.644Z,97580.69
2018-04-24T06:43:19.642Z,97571.28
2018-04-24T06:45:47.065Z,97575.31
2018-04-24T06:48:15.395Z,97574.25
2018-04-24T06:50:42.882Z,97572.98
2018-04-24T06:53:10.349Z,97575.64
2018-04-24T06:55:37.968Z,97571.36
2018-04-24T06:58:05.444Z,97566.80
2018-04-24T07:00:32.865Z,97561.67
2018-04-24T07:03:00.352Z,97567.63
2018-04-24T07:05:27.784Z,97571.22
2018-04-24T07:07:55.241Z,97563.55
2018-04-24T07:10:23.606Z,97567.22
2018-04-24T07:12:51.109Z,97568.92
2018-04-24T07:15:18.578Z,97570.95
2018-04-24T07:17:46.014Z,97567.65
2018-04-24T07:20:13.486Z,97565.69
2018-04-24T07:22:40.964Z,97568.20
2018-04-24T07:25:08.402Z,97565.64
2018-04-24T07:27:35.856Z,97564.27
2018-04-24T07:30:03.573Z,97568.19
2018-04-24T07:32:31.028Z,97557.14
2018-04-24T07:34:58.540Z,97559.94
2018-04-24T07:37:25.959Z,97555.05
2018-04-24T07:39:53.458Z,97559.23
2018-04-24T07:42:20.920Z,97558.84
2018-04-24T07:44:48.371Z,97547.34
2018-04-24T07:47:16.475Z,97553.58
2018-04-24T07:49:43.913Z,97553.95
2018-04-24T07:52:11.376Z,97557.74
2018-04-24T07:54:38.927Z,97554.45
2018-04-24T07:57:06.928Z,97545.58
2018-04-24T07:59:34.345Z,97548.00
2018-04-24T08:02:01.800Z,97549.86
2018-04-24T08:04:29.469Z,97546.66
2018-04-24T08:06:57.195Z,97545.57
2018-04-24T08:09:24.794Z,97550.83
2018-04-24T08:11:52.265Z,97547.47
2018-04-24T08:14:19.832Z,97546.92
2018-04-24T08:16:47.291Z,97539.89
2018-04-24T08:19:14.751Z,97541.07
2018-04-24T08:21:42.229Z,97543.66
2018-04-24T08:24:09.854Z,97539.30
2018-04-24T08:26:37.311Z,97537.81
2018-04-24T08:29:04.779Z,97538.31
2018-04-24T08:31:32.338Z,97531.37
2018-04-24T08:34:00.659Z,97539.39
2018-04-24T08:36:28.135Z,97535.34
2018-04-24T08:38:56.103Z,97536.16
2018-04-24T08:41:23.415Z,97546.40
2018-04-24T08:43:50.887Z,97543.22
2018-04-24T08:46:18.396Z,97537.04
2018-04-24T08:48:46.767Z,97540.76
2018-04-24T08:51:14.177Z,97533.80
2018-04-24T08:53:41.618Z,97528.05
2018-04-24T08:56:09.031Z,97528.47
2018-04-24T08:58:36.554Z,97527.42
2018-04-24T09:01:03.984Z,97528.48
2018-04-24T09:03:31.420Z,97530.24
2018-04-24T09:05:58.869Z,97521.55
2018-04-24T09:08:26.292Z,97519.86
2018-04-24T09:10:53.882Z,97515.42
2018-04-24T09:13:21.381Z,97520.14
2018-04-24T09:15:48.852Z,97523.30
2018-04-24T09:18:16.389Z,97520.47
2018-04-24T09:20:43.832Z,97510.13
2018-04-24T09:23:11.330Z,97511.00
2018-04-24T09:25:38.982Z,97508.47
2018-04-24T09:28:06.484Z,97507.38
2018-04-24T09:30:33.919Z,97506.30
2018-04-24T09:33:01.321Z,97501.45
2018-04-24T09:35:28.792Z,97507.94
2018-04-24T09:37:56.263Z,97504.98
2018-04-24T09:40:23.805Z,97500.98
2018-04-24T09:42:51.448Z,97499.64
2018-04-24T09:45:18.923Z,97501.76
2018-04-24T09:47:46.383Z,97505.05
2018-04-24T09:50:13.808Z,97506.14
2018-04-24T09:52:41.289Z,97493.95
2018-04-24T09:55:08.764Z,97495.55
2018-04-24T09:57:36.232Z,97495.22
2018-04-24T10:00:03.718Z,97487.28
2018-04-24T10:02:31.157Z,97482.02
2018-04-24T10:04:58.620Z,97473.87
2018-04-24T10:07:26.171Z,97478.80
2018-04-24T10:09:53.683Z,97471.35
2018-04-24T10:12:21.135Z,97469.22
2018-04-24T10:14:48.555Z,97466.14
2018-04-24T10:17:16.016Z,97467.47
2018-04-24T10:19:43.572Z,97462.84
2018-04-24T10:22:10.933Z,97460.66
2018-04-24T10:24:38.338Z,97460.10
2018-04-24T10:27:05.955Z,97456.73
2018-04-24T10:29:34.458Z,97456.02
2018-04-24T10:32:01.955Z,97458.32
2018-04-24T10:34:29.414Z,97458.45
2018-04-24T10:36:56.816Z,97454.05
2018-04-24T10:39:25.062Z,97440.59
2018-04-24T10:41:52.460Z,97445.88
2018-04-24T10:44:19.944Z,97436.09
2018-04-24T10:46:47.413Z,97444.82
2018-04-24T10:49:14.957Z,97441.84
2018-04-24T10:51:42.388Z,97439.00
2018-04-24T10:54:09.844Z,97437.19
2018-04-24T10:56:37.318Z,97436.69
2018-04-24T10:59:04.798Z,97431.13
2018-04-24T11:01:32.221Z,97433.17
2018-04-24T11:03:59.669Z,97424.98
2018-04-24T11:06:27.148Z,97429.83
2018-04-24T11:08:54.640Z,97428.98
2018-04-24T11:11:22.107Z,97427.52
2018-04-24T11:13:49.557Z,97426.77
2018-04-24T11:16:17.096Z,97422.84
2018-04-24T11:18:44.576Z,97414.80
2018-04-24T11:21:11.983Z,97411.89
2018-04-24T11:23:39.476Z,97414.83
2018-04-24T11:26:06.867Z,97411.02
2018-04-24T11:28:34.271Z,97406.45
2018-04-24T11:31:01.765Z,97406.14
2018-04-24T11:33:29.291Z,97401.96
2018-04-24T11:35:56.762Z,97391.92
2018-04-24T11:38:24.253Z,97388.55
2018-04-24T11:40:51.732Z,97388.16
2018-04-24T11:43:19.231Z,97390.05
2018-04-24T11:45:46.819Z,97388.67
2018-04-24T11:48:14.326Z,97380.83
2018-04-24T11:50:41.780Z,97375.28
2018-04-24T11:53:09.241Z,97364.32
2018-04-24T11:55:36.812Z,97364.42
2018-04-24T11:58:04.237Z,97357.31
2018-04-24T12:00:31.847Z,97356.21
2018-04-24T12:02:59.284Z,97348.83
2018-04-24T12:05:26.783Z,97346.80
2018-04-24T12:07:54.403Z,97341.00
2018-04-24T12:10:21.792Z,97337.55
2018-04-24T12:12:49.227Z,97338.22
2018-04-24T12:15:17.192Z,97341.57
2018-04-24T12:17:44.653Z,97338.58
2018-04-24T12:20:12.059Z,97325.61
2018-04-24T12:22:39.568Z,97326.48
2018-04-24T12:25:07.037Z,97318.18
2018-04-24T12:27:34.496Z,97316.59
2018-04-24T12:30:01.958Z,97310.97
2018-04-24T12:32:29.489Z,97302.72
2018-04-24T12:34:56.980Z,97306.41
2018-04-24T12:37:24.407Z,97304.59
2018-04-24T12:39:51.801Z,97293.36
2018-04-24T12:42:19.232Z,97292.42
2018-04-24T12:44:46.674Z,97288.47
2018-04-24T12:47:14.123Z,97288.75
2018-04-24T12:49:41.592Z,97291.74
2018-04-24T12:52:08.987Z,97282.05
2018-04-24T12:54:36.469Z,97291.42
2018-04-24T12:57:04.078Z,97283.36
2018-04-24T12:59:31.553Z,97275.52
2018-04-24T13:01:59.006Z,97279.44
2018-04-24T13:04:26.497Z,97268.62
2018-04-24T13:06:53.902Z,97267.05
2018-04-24T13:09:21.392Z,97268.12
2018-04-24T13:11:48.835Z,97261.47
2018-04-24T13:14:16.329Z,97260.86
2018-04-24T13:16:43.723Z,97257.18
2018-04-24T13:19:11.198Z,97251.48
2018-04-24T13:21:38.659Z,97246.23
2018-04-24T13:24:06.107Z,97245.70
2018-04-24T13:26:33.535Z,97234.67
2018-04-24T13:29:00.965Z,97228.20
2018-04-24T13:31:28.428Z,97230.26
2018-04-24T13:33:55.856Z,97227.66
2018-04-24T13:36:23.322Z,97222.44
2018-04-24T13:38:50.706Z,97219.28
2018-04-24T13:41:18.306Z,97208.86
2018-04-24T13:43:45.765Z,97210.11
2018-04-24T13:46:13.184Z,97204.23
2018-04-24T13:48:40.659Z,97200.66
2018-04-24T13:51:08.920Z,97201.44
2018-04-24T13:53:36.316Z,97196.50
2018-04-24T13:56:03.715Z,97194.81
2018-04-24T13:58:31.207Z,97187.73
2018-04-24T14:00:58.694Z,97186.27
2018-04-24T14:03:26.139Z,97185.52
2018-04-24T14:05:53.572Z,97182.34
2018-04-24T14:08:21.093Z,97182.88
2018-04-24T14:10:48.527Z,97168.45
2018-04-24T14:13:15.985Z,97176.16
2018-04-24T14:15:43.440Z,97172.95
2018-04-24T14:18:10.845Z,97170.09
2018-04-24T14:20:38.255Z,97165.89
2018-04-24T14:23:05.895Z,97168.29
2018-04-24T14:25:33.352Z,97172.52
2018-04-24T14:28:00.772Z,97162.19
2018-04-24T14:30:28.223Z,97155.84
2018-04-24T14:32:55.657Z,97158.43
2018-04-24T14:35:23.068Z,97152.27
2018-04-24T14:37:50.507Z,97150.50
2018-04-24T14:40:17.989Z,97148.58
2018-04-24T14:42:45.548Z,97143.91
2018-04-24T14:45:12.917Z,97133.06
2018-04-24T14:47:40.348Z,97144.59
2018-04-24T14:50:07.851Z,97129.98
2018-04-24T14:52:35.362Z,97132.64
2018-04-24T14:55:02.769Z,97131.70
2018-04-24T14:57:30.234Z,97139.89
2018-04-24T14:59:57.673Z,97130.32
2018-04-24T15:02:25.141Z,97127.88
2018-04-24T15:04:52.539Z,97128.57
2018-04-24T15:07:19.963Z,97128.03
2018-04-24T15:09:47.454Z,97125.44
2018-04-24T15:12:14.887Z,97122.63
2018-04-24T15:14:42.342Z,97114.54
2018-04-24T15:17:10.867Z,97107.62
2018-04-24T15:19:38.347Z,97111.86
2018-04-24T15:22:05.809Z,97110.92
2018-04-24T15:24:33.260Z,97108.61
2018-04-24T15:27:00.697Z,97106.32
2018-04-24T15:29:28.116Z,97104.50
2018-04-24T15:31:55.541Z,97105.17
2018-04-24T15:34:23.013Z,97098.14
2018-04-24T15:36:50.414Z,97104.56
2018-04-24T15:39:17.916Z,97100.36
2018-04-24T15:41:45.310Z,97101.56
2018-04-24T15:44:12.752Z,97098.64
2018-04-24T15:46:40.208Z,97099.14
2018-04-24T15:49:07.672Z,97101.20
2018-04-24T15:51:35.196Z,97097.02
2018-04-24T15:54:03.001Z,97091.38
2018-04-24T15:56:30.424Z,97090.66
2018-04-24T15:58:57.857Z,97094.14
2018-04-24T16:01:25.331Z,97091.25
2018-04-24T16:03:52.809Z,97097.27
2018-04-24T16:06:20.268Z,97089.72
2018-04-24T16:08:47.707Z,97084.80
2018-04-24T16:11:15.150Z,97080.31
2018-04-24T16:13:42.558Z,97083.03
2018-04-24T16:16:09.992Z,97086.22
2018-04-24T16:18:37.528Z,97086.48
2018-04-24T16:21:04.933Z,97079.38
2018-04-24T16:23:32.429Z,97078.84
2018-04-24T16:25:59.922Z,97079.41
2018-04-24T16:28:27.333Z,97080.31
2018-04-24T16:30:54.907Z,97080.22
2018-04-24T16:33:22.393Z,97084.42
2018-04-24T16:35:49.921Z,97072.98
2018-04-24T16:38:17.399Z,97074.05
2018-04-24T16:40:44.875Z,97073.69
2018-04-24T16:43:12.347Z,97074.37
2018-04-24T16:45:39.815Z,97073.44
2018-04-24T16:48:07.327Z,97067.46
2018-04-24T16:50:34.800Z,97071.40
2018-04-24T16:53:02.300Z,97070.84
2018-04-24T16:55:29.781Z,97076.18
2018-04-24T16:57:57.166Z,97069.85
2018-04-24T17:00:24.625Z,97069.78
2018-04-24T17:02:52.097Z,97074.80
2018-04-24T17:05:19.539Z,97075.81
2018-04-24T17:07:46.938Z,97078.61
2018-04-24T17:10:14.348Z,97072.50
2018-04-24T17:12:41.750Z,97071.16
2018-04-24T17:15:09.742Z,97073.12
2018-04-24T17:17:37.419Z,97081.80
2018-04-24T17:20:04.942Z,97077.94
2018-04-24T17:22:32.389Z,97074.36
2018-04-24T17:24:59.841Z,97071.70
2018-04-24T17:27:27.352Z,97078.71
2018-04-24T17:29:54.904Z,97073.38
2018-04-24T17:32:22.336Z,97069.98
2018-04-24T17:34:49.817Z,97074.36
2018-04-24T17:37:17.314Z,97069.53
2018-04-24T17:39:44.846Z,97076.55
2018-04-24T17:42:12.276Z,97081.68
2018-04-24T17:44:39.707Z,97083.64
2018-04-24T17:47:07.202Z,97074.91
2018-04-24T17:49:35.874Z,97079.60
2018-04-24T17:52:03.330Z,97081.67
2018-04-24T17:54:31.025Z,97082.12
2018-04-24T17:56:58.480Z,97081.52
2018-04-24T17:59:25.965Z,97088.25
2018-04-24T18:01:53.426Z,97086.41
2018-04-24T18:04:20.869Z,97096.85
2018-04-24T18:06:48.380Z,97092.77
2018-04-24T18:09:15.884Z,97089.22
2018-04-24T18:11:43.307Z,97082.86
2018-04-24T18:14:10.815Z,97094.35
2018-04-24T18:16:38.223Z,97091.97
2018-04-24T18:19:05.636Z,97095.63
2018-04-24T18:21:33.087Z,97088.47
2018-04-24T18:24:00.588Z,97089.58
2018-04-24T18:26:28.392Z,97092.36
2018-04-24T18:28:55.917Z,97094.12
2018-04-24T18:31:23.383Z,97092.09
2018-04-24T18:33:50.800Z,97097.98
2018-04-24T18:36:18.289Z,97101.80
2018-04-24T18:38:45.874Z,97095.95
2018-04-24T18:41:13.393Z,97100.84
2018-04-24T18:43:40.887Z,97104.98
2018-04-24T18:46:08.426Z,97111.22
2018-04-24T18:48:35.913Z,97116.77
2018-04-24T18:51:03.341Z,97120.47
2018-04-24T18:53:31.381Z,97115.30
2018-04-24T18:55:58.817Z,97121.33
2018-04-24T18:58:26.285Z,97117.02
2018-04-24T19:00:53.873Z,97121.86
2018-04-24T19:03:21.381Z,97133.61
2018-04-24T19:05:48.957Z,97135.97
2018-04-24T19:08:16.440Z,97142.98
2018-04-24T19:10:43.886Z,97141.11
2018-04-24T19:13:11.392Z,97142.67
2018-04-24T19:15:38.881Z,97145.83
2018-04-24T19:18:06.323Z,97143.24
2018-04-24T19:20:33.932Z,97149.41
2018-04-24T19:23:01.336Z,97148.02
2018-04-24T19:25:34.451Z,97146.09
2018-04-24T19:28:01.896Z,97154.48
2018-04-24T19:30:29.327Z,97158.22
2018-04-24T19:32:56.777Z,97153.11
2018-04-24T19:35:24.195Z,97157.94
2018-04-24T19:37:51.650Z,97158.75
2018-04-24T19:43:11.277Z,97159.84
2018-04-24T19:45:38.695Z,97160.11
2018-04-24T19:48:06.144Z,97163.55
2018-04-24T19:50:33.590Z,97165.46
2018-04-24T19:53:01.027Z,97162.86
2018-04-24T19:55:28.519Z,97157.45
2018-04-24T19:57:56.026Z,97159.19
2018-04-24T20:00:23.469Z,97158.45
2018-04-24T20:02:50.914Z,97164.73
2018-04-24T20:05:18.420Z,97162.25
2018-04-24T20:07:45.869Z,97166.46
2018-04-24T20:10:13.671Z,97170.97
2018-04-24T20:12:41.088Z,97170.97
2018-04-24T20:15:08.610Z,97169.46
2018-04-24T20:17:36.060Z,97167.72
2018-04-24T20:20:03.520Z,97172.39
2018-04-24T20:22:30.979Z,97169.66
2018-04-24T20:24:58.423Z,97174.97
2018-04-24T20:27:25.858Z,97173.52
2018-04-24T20:29:53.320Z,97176.27
2018-04-24T20:32:20.776Z,97176.59
2018-04-24T20:34:48.245Z,97178.25
2018-04-24T20:37:15.708Z,97171.48
2018-04-24T20:39:43.193Z,97171.27
2018-04-24T20:42:10.669Z,97176.74
2018-04-24T20:44:38.173Z,97174.45
2018-04-24T20:47:05.617Z,97176.58
2018-04-24T20:49:33.498Z,97176.15
2018-04-24T20:52:00.890Z,97174.87
2018-04-24T20:54:28.338Z,97175.66
2018-04-24T20:56:55.797Z,97176.13
2018-04-24T20:59:23.241Z,97177.92
2018-04-24T21:01:50.736Z,97174.41
2018-04-24T21:04:18.343Z,97177.73
2018-04-24T21:06:45.831Z,97177.47
2018-04-24T21:09:13.265Z,97174.48
2018-04-24T21:11:40.708Z,97175.45
2018-04-24T21:14:08.136Z,97176.22
2018-04-24T21:16:35.613Z,97180.13
2018-04-24T21:19:03.091Z,97174.16
2018-04-24T21:21:30.511Z,97180.02
2018-04-24T21:23:57.912Z,97174.47
2018-04-24T21:26:25.367Z,97170.93
2018-04-24T21:28:52.866Z,97172.05
2018-04-24T21:31:20.351Z,97173.63
2018-04-24T21:33:47.798Z,97170.95
2018-04-24T21:36:15.190Z,97168.23
2018-04-24T21:38:42.655Z,97175.16
2018-04-24T21:41:10.063Z,97174.46
2018-04-24T21:43:37.468Z,97175.04
2018-04-24T21:46:04.912Z,97169.12
2018-04-24T21:48:32.447Z,97169.20
2018-04-24T21:50:59.907Z,97170.31
2018-04-24T21:53:27.364Z,97169.06
2018-04-24T21:55:54.804Z,97170.12
2018-04-24T21:58:22.226Z,97172.64
2018-04-24T22:00:49.702Z,97172.22
2018-04-24T22:03:17.259Z,97171.08
2018-04-24T22:05:44.697Z,97175.09
2018-04-24T22:08:12.094Z,97177.95
2018-04-24T22:10:39.525Z,97172.25
2018-04-24T22:13:06.992Z,97176.12
2018-04-24T22:15:34.413Z,97178.94
2018-04-24T22:18:01.857Z,97173.35
2018-04-24T22:20:29.264Z,97174.05
2018-04-24T22:22:56.834Z,97172.91
2018-04-24T22:25:24.278Z,97170.58
2018-04-24T22:27:51.867Z,97167.98
2018-04-24T22:30:19.314Z,97175.17
2018-04-24T22:32:46.782Z,97171.91
2018-04-24T22:35:14.186Z,97176.42
2018-04-24T22:37:41.613Z,97173.13
2018-04-24T22:40:09.010Z,97169.95
2018-04-24T22:42:37.147Z,97172.80
2018-04-24T22:45:04.607Z,97165.64
2018-04-24T22:47:32.079Z,97166.62
2018-04-24T22:49:59.508Z,97164.79
2018-04-24T22:52:27.037Z,97167.08
2018-04-24T22:54:54.416Z,97160.84
2018-04-24T22:57:21.849Z,97158.87
2018-04-24T22:59:49.311Z,97161.45
2018-04-24T23:02:16.720Z,97155.97
2018-04-24T23:04:44.185Z,97165.97
2018-04-24T23:07:11.643Z,97161.57
2018-04-24T23:09:39.039Z,97164.14
2018-04-24T23:12:18.345Z,97174.22
2018-04-24T23:14:57.630Z,97163.62
2018-04-24T23:17:36.849Z,97160.04
2018-04-24T23:20:15.978Z,97160.83
2018-04-24T23:22:43.416Z,97166.05
2018-04-24T23:25:10.843Z,97157.05
2018-04-24T23:27:38.298Z,97160.39
2018-04-24T23:30:05.768Z,97164.33
2018-04-24T23:32:33.212Z,97159.77
2018-04-24T23:35:00.697Z,97153.22
2018-04-24T23:37:28.167Z,97162.50
2018-04-24T23:39:55.632Z,97157.41
2018-04-24T23:42:23.109Z,97156.30
2018-04-24T23:44:50.603Z,97153.08
2018-04-24T23:47:18.461Z,97155.27
2018-04-24T23:49:45.924Z,97150.09
2018-04-24T23:52:13.487Z,97152.24
2018-04-24T23:54:40.996Z,97150.44
2018-04-24T23:57:08.457Z,97147.16
2018-04-24T23:59:36.053Z,97144.02
